Time;durP1;ratioP1;P1;durP2;ratioP2;P2;SDS_P1;SDS_P2;PMS_P1;PMS_P2;Temp;Humidity;BMP_temperature;BMP_pressure;BME280_temperature;BME280_humidity;BME280_pressure;Samples;Min_cycle;Max_cycle;Signal;HPM_P1;HPM_P2
2022/05/07 00:00:20;;;;;;;;;8.25;5.00;;;;;18.33;43.60;102301.03;2398724;28;46072;-81
2022/05/07 00:01:31;;;;;;;;;7.00;5.00;;;;;18.28;43.64;102290.59;2395513;28;45278;-81
2022/05/07 00:02:41;;;;;;;;;5.00;4.00;;;;;18.28;43.58;102295.03;2392523;28;47607;-81
2022/05/07 00:03:52;;;;;;;;;3.75;3.25;;;;;18.26;44.01;102289.78;2399817;28;44731;-82
2022/05/07 00:05:02;;;;;;;;;5.00;5.00;;;;;18.26;44.00;102291.59;2403694;28;45566;-81
2022/05/07 00:06:13;;;;;;;;;7.75;5.25;;;;;18.25;44.16;102282.72;2398548;28;45457;-81
2022/05/07 00:07:23;;;;;;;;;6.00;4.75;;;;;18.26;44.77;102288.94;2397779;28;48696;-81
2022/05/07 00:08:33;;;;;;;;;6.00;4.00;;;;;18.26;44.35;102284.47;2398065;28;45315;-80
2022/05/07 00:09:44;;;;;;;;;4.50;4.50;;;;;18.25;44.56;102277.41;2408872;28;45381;-85
2022/05/07 00:10:55;;;;;;;;;4.50;4.25;;;;;18.27;44.58;102288.00;2401574;28;45482;-83
2022/05/07 00:12:06;;;;;;;;;5.25;4.00;;;;;18.26;44.53;102288.94;2402218;28;45721;-82
2022/05/07 00:13:16;;;;;;;;;7.25;6.50;;;;;18.21;44.86;102283.78;2403618;28;45448;-83
2022/05/07 00:14:27;;;;;;;;;10.00;7.00;;;;;18.20;44.83;102282.91;2400342;28;45298;-84
2022/05/07 00:15:37;;;;;;;;;6.25;4.75;;;;;18.20;45.29;102282.03;2401469;28;45279;-84
2022/05/07 00:18:16;;;;;;;;;7.00;7.00;;;;;18.18;45.08;102292.72;2398268;28;45600;-84
2022/05/07 00:19:27;;;;;;;;;5.00;4.75;;;;;18.17;45.51;102280.38;2400328;28;47022;-84
2022/05/07 00:20:38;;;;;;;;;6.00;5.50;;;;;18.13;45.82;102283.19;2397300;28;45315;-84
2022/05/07 00:21:48;;;;;;;;;7.75;7.25;;;;;18.11;46.35;102283.28;2402621;28;45598;-84
2022/05/07 00:22:59;;;;;;;;;3.75;2.25;;;;;18.07;46.39;102284.34;2401815;28;44762;-84
2022/05/07 00:24:09;;;;;;;;;11.00;5.75;;;;;18.04;46.75;102284.44;2407617;28;45428;-84
2022/05/07 00:25:20;;;;;;;;;6.25;6.25;;;;;17.97;46.59;102274.06;2408762;28;45673;-81
2022/05/07 00:26:30;;;;;;;;;5.00;5.00;;;;;17.96;46.86;102282.97;2402491;28;45397;-81
2022/05/07 00:27:40;;;;;;;;;5.75;4.25;;;;;17.93;46.47;102280.41;2404424;28;44735;-82
2022/05/07 00:28:51;;;;;;;;;7.25;7.25;;;;;17.88;46.70;102277.94;2407360;28;45439;-82
2022/05/07 00:30:01;;;;;;;;;6.25;6.00;;;;;17.88;46.93;102279.72;2399638;28;45264;-82
2022/05/07 00:31:12;;;;;;;;;8.50;6.25;;;;;17.85;47.13;102283.38;2402771;28;45425;-81
2022/05/07 00:32:23;;;;;;;;;7.25;5.75;;;;;17.82;47.01;102285.31;2399970;28;45462;-80
2022/05/07 00:33:33;;;;;;;;;7.00;7.00;;;;;17.77;47.46;102280.16;2405304;28;46659;-81
2022/05/07 00:34:43;;;;;;;;;7.00;6.00;;;;;17.73;47.43;102282.06;2404346;28;45320;-81
2022/05/07 00:35:54;;;;;;;;;7.75;6.50;;;;;17.70;47.28;102276.88;2408777;28;45554;-81
2022/05/07 00:37:05;;;;;;;;;9.50;7.25;;;;;17.69;47.26;102279.59;2401256;28;45361;-81
2022/05/07 00:38:15;;;;;;;;;5.75;4.25;;;;;17.69;47.23;102280.47;2407066;28;46339;-81
2022/05/07 00:39:26;;;;;;;;;8.50;6.75;;;;;17.67;47.37;102277.00;2404782;28;45266;-82
2022/05/07 00:40:36;;;;;;;;;9.25;7.00;;;;;17.65;47.25;102274.41;2399033;28;46187;-82
2022/05/07 00:41:47;;;;;;;;;7.75;6.00;;;;;17.68;47.07;102278.72;2407886;28;45405;-82
2022/05/07 00:42:58;;;;;;;;;6.50;6.00;;;;;17.68;47.27;102280.53;2407228;28;45298;-82
2022/05/07 00:44:08;;;;;;;;;10.00;7.25;;;;;17.67;47.59;102277.00;2402002;28;45409;-82
2022/05/07 00:45:19;;;;;;;;;7.00;6.25;;;;;17.67;47.24;102271.69;2404669;28;46268;-82
2022/05/07 00:46:29;;;;;;;;;5.50;5.50;;;;;17.68;47.21;102277.88;2399007;28;45206;-81
2022/05/07 00:47:39;;;;;;;;;8.00;7.00;;;;;17.70;47.25;102282.22;2406819;28;45371;-82
2022/05/07 00:48:51;;;;;;;;;9.00;7.25;;;;;17.70;47.30;102276.88;2404351;28;45301;-81
2022/05/07 00:51:34;;;;;;;;;7.50;7.25;;;;;17.67;47.53;102271.69;2398346;28;45570;-82
2022/05/07 00:52:45;;;;;;;;;7.25;7.25;;;;;17.67;47.70;102271.69;2410527;28;45463;-81
2022/05/07 00:53:55;;;;;;;;;9.75;6.50;;;;;17.68;47.94;102264.56;2402755;28;45399;-81
2022/05/07 00:55:06;;;;;;;;;6.50;5.25;;;;;17.66;47.40;102270.81;2408989;28;45420;-85
2022/05/07 00:56:17;;;;;;;;;7.00;6.00;;;;;17.66;47.93;102265.50;2403198;28;45279;-85
2022/05/07 00:57:27;;;;;;;;;7.25;7.25;;;;;17.69;48.11;102272.47;2401013;28;45172;-85
2022/05/07 00:58:38;;;;;;;;;5.50;4.50;;;;;17.66;47.76;102267.28;2401440;28;45287;-85
2022/05/07 00:59:48;;;;;;;;;6.25;6.25;;;;;17.65;48.14;102273.53;2406813;28;45258;-82
2022/05/07 01:00:59;;;;;;;;;7.00;6.25;;;;;17.64;48.04;102275.31;2401397;28;44836;-83
2022/05/07 01:02:09;;;;;;;;;8.50;7.00;;;;;17.61;48.24;102269.25;2397686;28;46027;-83
2022/05/07 01:03:19;;;;;;;;;9.25;7.00;;;;;17.56;47.76;102266.78;2397967;28;45365;-83
2022/05/07 01:04:30;;;;;;;;;8.00;6.25;;;;;17.56;47.77;102271.25;2409351;28;46290;-82
2022/05/07 01:05:41;;;;;;;;;7.75;7.00;;;;;17.55;47.88;102273.03;2402049;28;45218;-82
2022/05/07 01:06:52;;;;;;;;;7.25;6.00;;;;;17.54;48.30;102269.50;2408589;28;45352;-80
2022/05/07 01:08:03;;;;;;;;;6.75;6.50;;;;;17.57;48.40;102267.63;2400239;28;45444;-82
2022/05/07 01:09:14;;;;;;;;;9.00;9.00;;;;;17.57;48.36;102270.31;2398474;28;46865;-81
2022/05/07 01:10:25;;;;;;;;;9.00;8.00;;;;;17.56;48.38;102271.25;2398091;28;45417;-81
2022/05/07 01:11:35;;;;;;;;;9.25;8.75;;;;;17.50;48.26;102270.56;2394416;28;47278;-81
2022/05/07 01:12:47;;;;;;;;;11.50;8.25;;;;;17.46;48.24;102273.38;2401538;28;45366;-81
2022/05/07 01:13:57;;;;;;;;;7.25;7.25;;;;;17.41;48.60;102277.06;2403648;28;47461;-82
2022/05/07 01:15:08;;;;;;;;;13.00;10.50;;;;;17.35;48.80;102269.34;2410410;28;45395;-82
2022/05/07 01:16:18;;;;;;;;;14.75;11.50;;;;;17.27;48.94;102274.94;2393208;28;48189;-82
2022/05/07 01:17:32;;;;;;;;;9.50;8.00;;;;;17.23;48.78;102270.66;2391917;28;44688;-82
2022/05/07 01:18:43;;;;;;;;;10.25;7.25;;;;;17.14;49.85;102277.13;2398989;28;47256;-81
2022/05/07 01:19:54;;;;;;;;;7.25;7.25;;;;;17.10;49.39;102264.88;2400297;28;45375;-82
2022/05/07 01:21:09;;;;;;;;;7.00;7.00;;;;;17.03;49.31;102274.88;2402907;28;46495;-82
2022/05/07 01:22:21;;;;;;;;;8.75;7.75;;;;;16.96;49.31;102265.41;2408023;28;45433;-82
2022/05/07 01:23:32;;;;;;;;;10.25;9.50;;;;;16.92;50.28;102272.59;2401372;28;45335;-82
2022/05/07 01:24:42;;;;;;;;;12.00;9.50;;;;;16.90;49.39;102273.56;2404009;28;45305;-82
2022/05/07 01:25:57;;;;;;;;;8.50;8.50;;;;;16.87;49.42;102274.53;2402713;28;46435;-82
2022/05/07 01:27:08;;;;;;;;;9.00;7.50;;;;;16.86;49.66;102276.34;2394013;28;45307;-79
2022/05/07 01:28:18;;;;;;;;;10.50;9.75;;;;;16.86;49.53;102272.81;2399574;28;45817;-79
2022/05/07 01:29:28;;;;;;;;;12.00;8.50;;;;;16.83;49.74;102265.81;2391308;28;45256;-81
2022/05/07 01:30:39;;;;;;;;;11.25;11.00;;;;;16.82;49.67;102276.47;2383169;28;47010;-81
2022/05/07 01:31:49;;;;;;;;;10.25;8.75;;;;;16.81;49.74;102269.47;2386591;28;45374;-81
2022/05/07 01:33:00;;;;;;;;;9.25;9.25;;;;;16.78;50.05;102270.44;2391858;28;45525;-81
2022/05/07 01:34:11;;;;;;;;;8.50;8.00;;;;;16.76;49.66;102275.81;2409395;28;45252;-81
2022/05/07 01:35:21;;;;;;;;;9.75;9.25;;;;;16.73;49.85;102259.09;2393410;28;47363;-81
2022/05/07 01:36:31;;;;;;;;;9.75;9.75;;;;;16.70;49.85;102270.69;2400747;28;45314;-81
2022/05/07 01:37:42;;;;;;;;;10.75;9.25;;;;;16.67;50.37;102267.28;2400295;28;46336;-81
2022/05/07 01:38:52;;;;;;;;;7.75;7.75;;;;;16.64;49.84;102261.13;2398483;28;45442;-81
2022/05/07 01:40:03;;;;;;;;;10.25;8.00;;;;;16.63;49.83;102263.88;2392215;28;46233;-81
2022/05/07 01:41:13;;;;;;;;;15.00;9.25;;;;;16.64;50.07;102271.75;2408978;28;45517;-81
2022/05/07 01:42:23;;;;;;;;;9.00;8.25;;;;;16.64;49.98;102266.44;2391007;28;47164;-81
2022/05/07 01:43:34;;;;;;;;;9.00;8.25;;;;;16.67;49.85;102268.13;2401304;28;45360;-81
2022/05/07 01:44:44;;;;;;;;;12.75;9.75;;;;;16.66;50.39;102263.75;2401696;28;45673;-80
2022/05/07 01:45:55;;;;;;;;;9.50;8.00;;;;;16.67;50.13;102270.78;2389146;28;45264;-81
2022/05/07 01:48:34;;;;;;;;;9.00;8.25;;;;;16.64;50.17;102261.13;2404491;28;44703;-80
2022/05/07 01:49:44;;;;;;;;;9.50;9.50;;;;;16.65;49.98;102268.19;2408147;28;46049;-80
2022/05/07 01:50:55;;;;;;;;;8.00;7.00;;;;;16.65;50.39;102262.88;2391669;28;45409;-80
2022/05/07 01:52:07;;;;;;;;;11.00;9.00;;;;;16.64;50.37;102263.78;2390550;28;47511;-79
2022/05/07 01:53:17;;;;;;;;;10.75;8.50;;;;;16.60;50.38;102261.31;2399167;28;45460;-79
2022/05/07 01:54:27;;;;;;;;;9.25;9.00;;;;;16.56;50.08;102265.00;2398588;28;46514;-79
2022/05/07 01:55:38;;;;;;;;;5.50;5.50;;;;;16.54;50.60;102265.06;2403195;28;44727;-79
2022/05/07 01:56:48;;;;;;;;;10.50;10.25;;;;;16.51;50.33;102260.72;2397189;28;48105;-79
2022/05/07 01:57:59;;;;;;;;;9.25;8.50;;;;;16.49;50.27;102267.00;2398387;28;44756;-79
2022/05/07 01:59:10;;;;;;;;;7.50;7.50;;;;;16.48;51.13;102265.25;2402205;28;48044;-79
2022/05/07 02:00:20;;;;;;;;;12.00;10.50;;;;;16.41;50.58;102265.47;2396224;28;45299;-79
2022/05/07 02:01:31;;;;;;;;;11.50;8.00;;;;;16.39;51.06;102262.00;2398114;28;45322;-79
2022/05/07 02:02:42;;;;;;;;;10.00;8.25;;;;;16.39;50.78;102261.13;2411913;28;45285;-79
2022/05/07 02:03:52;;;;;;;;;8.25;7.00;;;;;16.38;51.08;102268.22;2404830;28;45323;-79
2022/05/07 02:05:03;;;;;;;;;16.75;10.00;;;;;16.36;51.11;102263.88;2410100;28;44737;-79
2022/05/07 02:06:13;;;;;;;;;12.75;10.50;;;;;16.33;51.27;102262.19;2404299;28;45488;-80
2022/05/07 02:07:23;;;;;;;;;11.00;9.75;;;;;16.31;51.05;102258.72;2403442;28;44787;-80
2022/05/07 02:08:34;;;;;;;;;9.75;8.25;;;;;16.31;51.02;102267.56;2409780;28;45343;-80
2022/05/07 02:09:44;;;;;;;;;11.50;9.00;;;;;16.31;50.93;102269.34;2400088;28;45561;-81
2022/05/07 02:10:55;;;;;;;;;16.00;10.25;;;;;16.32;50.67;102255.16;2406326;28;45376;-80
2022/05/07 02:12:05;;;;;;;;;8.25;8.25;;;;;16.35;51.08;102267.44;2400090;28;45368;-80
2022/05/07 02:13:16;;;;;;;;;9.00;8.25;;;;;16.33;51.04;102258.66;2394628;28;45389;-80
2022/05/07 02:14:26;;;;;;;;;10.75;10.75;;;;;16.30;51.40;102256.97;2403781;28;45594;-80
2022/05/07 02:15:36;;;;;;;;;9.00;9.00;;;;;16.27;51.21;102257.09;2407841;28;45453;-80
2022/05/07 02:16:46;;;;;;;;;11.25;10.00;;;;;16.26;51.42;102258.00;2410231;28;44754;-79
2022/05/07 02:17:57;;;;;;;;;11.50;9.75;;;;;16.25;51.75;102254.47;2396833;28;47554;-79
2022/05/07 02:19:07;;;;;;;;;11.50;9.25;;;;;16.23;51.33;102263.41;2400640;28;44703;-79
2022/05/07 02:20:18;;;;;;;;;10.50;9.25;;;;;16.22;51.99;102264.34;2399008;28;47957;-79
2022/05/07 02:21:28;;;;;;;;;15.50;11.00;;;;;16.18;51.39;102264.44;2398924;28;45493;-79
2022/05/07 02:22:39;;;;;;;;;8.25;8.25;;;;;16.16;51.52;102263.63;2404676;28;45440;-79
2022/05/07 02:23:49;;;;;;;;;9.75;7.50;;;;;16.15;51.65;102259.22;2409255;28;45521;-79
2022/05/07 02:24:59;;;;;;;;;12.50;10.00;;;;;16.14;51.76;102257.50;2402061;28;46312;-79
2022/05/07 02:26:10;;;;;;;;;3.75;3.75;;;;;16.15;51.51;102258.38;2403415;28;45253;-78
2022/05/07 02:27:20;;;;;;;;;11.00;8.75;;;;;16.17;51.61;102259.19;2408443;28;45598;-79
2022/05/07 02:28:30;;;;;;;;;9.00;8.75;;;;;16.20;51.48;102256.41;2388948;28;45371;-79
2022/05/07 02:29:41;;;;;;;;;9.25;9.25;;;;;16.20;51.48;102257.28;2403625;28;47076;-79
2022/05/07 02:30:51;;;;;;;;;12.50;9.50;;;;;16.22;51.24;102254.59;2402926;28;45386;-79
2022/05/07 02:32:05;;;;;;;;;6.75;6.25;;;;;16.23;51.66;102256.31;2406154;28;46444;-79
2022/05/07 02:33:17;;;;;;;;;10.75;7.75;;;;;16.22;51.37;102251.94;2399187;28;45634;-79
2022/05/07 02:34:28;;;;;;;;;8.50;7.75;;;;;16.23;51.41;102247.47;2397429;28;45303;-80
2022/05/07 02:35:38;;;;;;;;;8.75;8.75;;;;;16.23;51.27;102255.44;2398789;28;44597;-79
2022/05/07 02:36:49;;;;;;;;;10.00;9.00;;;;;16.25;50.98;102250.97;2397793;28;46959;-79
2022/05/07 02:37:59;;;;;;;;;10.25;9.00;;;;;16.24;51.29;102255.41;2397678;28;45282;-78
2022/05/07 02:39:09;;;;;;;;;9.50;8.75;;;;;16.24;51.10;102251.88;2408875;28;45707;-78
2022/05/07 02:40:20;;;;;;;;;9.75;7.75;;;;;16.25;51.40;102253.63;2401818;28;44635;-79
2022/05/07 02:42:59;;;;;;;;;10.00;9.00;;;;;16.18;51.53;102248.50;2402005;28;45322;-78
2022/05/07 02:44:09;;;;;;;;;10.25;8.00;;;;;16.17;51.62;102252.06;2407093;28;46275;-78
2022/05/07 02:45:20;;;;;;;;;9.75;8.50;;;;;16.16;51.43;102250.34;2390754;28;45376;-78
2022/05/07 02:46:30;;;;;;;;;13.00;9.75;;;;;16.16;51.55;102249.47;2400413;28;45539;-78
2022/05/07 02:47:42;;;;;;;;;10.25;8.75;;;;;16.15;51.35;102251.25;2394247;28;45192;-80
2022/05/07 02:48:53;;;;;;;;;9.75;9.25;;;;;16.14;51.67;102257.50;2397421;28;48262;-80
2022/05/07 02:50:05;;;;;;;;;11.50;9.50;;;;;16.14;51.65;102248.66;2401312;28;45315;-80
2022/05/07 02:51:16;;;;;;;;;8.50;8.25;;;;;16.13;51.95;102249.56;2399542;28;45622;-80
2022/05/07 02:52:26;;;;;;;;;8.50;8.50;;;;;16.14;51.82;102252.19;2402081;28;45421;-80
2022/05/07 02:53:36;;;;;;;;;10.00;10.00;;;;;16.12;52.42;102258.47;2407493;28;45378;-80
2022/05/07 02:54:47;;;;;;;;;11.25;9.50;;;;;16.05;51.97;102247.19;2403203;28;45353;-81
2022/05/07 02:55:57;;;;;;;;;10.50;9.75;;;;;16.02;51.72;102255.22;2410170;28;45334;-80
2022/05/07 02:57:07;;;;;;;;;11.25;10.25;;;;;16.01;51.87;102245.50;2404699;28;45291;-80
2022/05/07 02:58:18;;;;;;;;;9.00;7.00;;;;;16.02;51.73;102252.56;2408443;28;45244;-81
2022/05/07 02:59:29;;;;;;;;;11.25;8.75;;;;;16.02;52.27;102247.25;2402588;28;45320;-79
2022/05/07 03:00:41;;;;;;;;;16.00;11.25;;;;;16.04;52.08;102256.03;2409280;28;46176;-79
2022/05/07 03:01:52;;;;;;;;;9.50;9.25;;;;;16.03;52.03;102254.28;2399652;28;45290;-79
2022/05/07 03:03:02;;;;;;;;;11.00;11.00;;;;;16.03;52.04;102254.28;2401102;28;47431;-79
2022/05/07 03:04:12;;;;;;;;;12.50;10.25;;;;;16.04;52.24;102251.63;2396295;28;44747;-78
2022/05/07 03:05:23;;;;;;;;;9.25;8.50;;;;;16.05;52.02;102255.16;2408778;28;45488;-79
2022/05/07 03:06:34;;;;;;;;;10.75;9.75;;;;;16.06;52.01;102256.88;2405042;28;45538;-79
2022/05/07 03:07:44;;;;;;;;;9.00;8.75;;;;;16.06;52.06;102256.88;2392258;28;47714;-79
2022/05/07 03:08:55;;;;;;;;;11.50;10.00;;;;;16.03;52.79;102249.84;2390208;28;45286;-78
2022/05/07 03:10:05;;;;;;;;;12.75;11.25;;;;;16.01;52.45;102250.81;2386872;28;47011;-78
2022/05/07 03:11:16;;;;;;;;;11.00;10.00;;;;;15.97;52.81;102250.94;2403566;28;44728;-80
2022/05/07 03:12:28;;;;;;;;;9.75;9.75;;;;;15.92;53.38;102247.56;2403710;28;46752;-80
2022/05/07 03:13:38;;;;;;;;;8.25;8.00;;;;;15.85;52.86;102246.84;2405855;28;45884;-79
2022/05/07 03:14:48;;;;;;;;;9.25;9.25;;;;;15.84;52.68;102245.13;2407511;28;46287;-79
2022/05/07 03:15:59;;;;;;;;;8.50;8.50;;;;;15.85;52.98;102251.31;2399654;28;45243;-79
2022/05/07 03:17:09;;;;;;;;;11.25;9.50;;;;;15.86;53.26;102251.25;2404086;28;45511;-79
2022/05/07 03:18:19;;;;;;;;;12.50;10.25;;;;;15.84;53.01;102239.84;2405915;28;45195;-78
2022/05/07 03:19:30;;;;;;;;;11.25;10.25;;;;;15.86;52.93;102248.59;2409227;28;46067;-78
2022/05/07 03:20:40;;;;;;;;;12.25;9.00;;;;;15.86;52.86;102247.72;2388354;28;45369;-79
2022/05/07 03:21:51;;;;;;;;;13.50;11.25;;;;;15.86;52.88;102248.59;2389495;28;46572;-79
2022/05/07 03:23:01;;;;;;;;;10.75;10.75;;;;;15.86;52.76;102247.72;2398680;28;45317;-80
2022/05/07 03:24:11;;;;;;;;;12.50;9.50;;;;;15.87;53.22;102244.16;2398925;28;47042;-78
2022/05/07 03:25:22;;;;;;;;;13.25;11.00;;;;;15.86;53.16;102237.13;2396828;28;45327;-78
2022/05/07 03:26:33;;;;;;;;;14.00;10.50;;;;;15.86;53.20;102242.44;2397824;28;46467;-78
2022/05/07 03:27:44;;;;;;;;;9.00;9.00;;;;;15.85;52.82;102240.72;2391675;28;45293;-78
2022/05/07 03:28:54;;;;;;;;;17.00;11.25;;;;;15.88;53.10;102237.94;2399456;28;47337;-78
2022/05/07 03:30:07;;;;;;;;;8.50;8.50;;;;;15.90;53.04;102244.06;2410422;28;45371;-80
2022/05/07 03:31:19;;;;;;;;;13.25;11.75;;;;;15.90;53.11;102245.84;2398124;28;46268;-79
2022/05/07 03:32:30;;;;;;;;;9.75;9.50;;;;;15.90;53.20;102249.34;2393862;28;44739;-79
2022/05/07 03:33:40;;;;;;;;;18.75;13.00;;;;;15.89;53.34;102247.63;2401318;28;45763;-79
2022/05/07 03:34:50;;;;;;;;;7.25;7.25;;;;;15.91;53.51;102244.94;2398111;28;45263;-79
2022/05/07 03:36:01;;;;;;;;;11.75;10.25;;;;;15.88;53.68;102243.25;2399810;28;46008;-78
2022/05/07 03:37:12;;;;;;;;;12.25;10.50;;;;;15.85;53.80;102252.16;2396393;28;45335;-78
2022/05/07 03:38:22;;;;;;;;;9.00;8.75;;;;;15.79;53.58;102241.75;2409344;28;45564;-78
2022/05/07 03:39:32;;;;;;;;;12.25;9.50;;;;;15.79;53.82;102246.19;2392845;28;45340;-78
2022/05/07 03:40:43;;;;;;;;;11.75;11.25;;;;;15.77;53.40;102254.19;2394433;28;45395;-80
2022/05/07 03:41:54;;;;;;;;;12.00;10.50;;;;;15.76;53.94;102244.50;2408763;28;45364;-82
2022/05/07 03:43:05;;;;;;;;;12.25;10.50;;;;;15.71;54.96;102254.38;2405279;28;45452;-83
2022/05/07 03:44:15;;;;;;;;;16.50;11.00;;;;;15.63;54.96;102246.69;2392259;28;45399;-80
2022/05/07 03:45:27;;;;;;;;;9.50;9.50;;;;;15.59;54.37;102247.66;2391117;28;48148;-80
2022/05/07 03:46:37;;;;;;;;;11.25;11.25;;;;;15.57;54.59;102247.72;2395645;28;45484;-80
2022/05/07 03:47:47;;;;;;;;;16.75;13.25;;;;;15.57;54.23;102252.13;2406835;28;45340;-80
2022/05/07 03:48:58;;;;;;;;;17.75;9.25;;;;;15.57;54.64;102253.00;2402147;28;45339;-79
2022/05/07 03:50:09;;;;;;;;;9.25;8.00;;;;;15.59;54.41;102250.31;2409462;28;46482;-79
2022/05/07 03:51:19;;;;;;;;;14.75;11.50;;;;;15.62;54.48;102244.94;2403583;28;45351;-80
2022/05/07 03:54:06;;;;;;;;;13.75;12.00;;;;;15.67;54.11;102247.44;2376620;28;45643;-77
2022/05/07 03:55:17;;;;;;;;;10.50;10.25;;;;;15.67;54.59;102243.00;2407803;28;45663;-80
2022/05/07 03:56:27;;;;;;;;;11.75;10.50;;;;;15.69;54.54;102249.13;2402198;28;45443;-80
2022/05/07 03:57:37;;;;;;;;;9.25;9.25;;;;;15.70;54.89;102242.91;2404331;28;46204;-80
2022/05/07 03:58:48;;;;;;;;;10.50;8.50;;;;;15.74;54.43;102241.91;2400724;28;45315;-80
2022/05/07 04:00:00;;;;;;;;;13.25;12.25;;;;;15.77;54.47;102242.72;2402299;28;46549;-80
2022/05/07 04:01:10;;;;;;;;;10.50;8.75;;;;;15.79;54.43;102247.06;2403831;28;45329;-80
2022/05/07 04:02:21;;;;;;;;;16.25;13.00;;;;;15.81;54.56;102249.66;2406725;28;46321;-80
2022/05/07 04:03:31;;;;;;;;;10.00;9.00;;;;;15.79;54.71;102240.88;2404608;28;44640;-80
2022/05/07 04:04:42;;;;;;;;;11.50;10.50;;;;;15.72;55.04;102251.69;2411080;28;45420;-80
2022/05/07 04:05:52;;;;;;;;;10.00;9.75;;;;;15.67;55.11;102236.84;2394510;28;44661;-80
2022/05/07 04:07:04;;;;;;;;;14.75;10.50;;;;;15.66;54.86;102245.69;2401501;28;45334;-83
2022/05/07 04:08:15;;;;;;;;;16.25;11.00;;;;;15.67;54.89;102237.72;2403191;28;44732;-79
2022/05/07 04:09:25;;;;;;;;;10.00;8.50;;;;;15.68;54.80;102243.88;2402211;28;45411;-82
2022/05/07 04:10:36;;;;;;;;;13.00;10.00;;;;;15.66;55.54;102230.66;2398248;28;44806;-81
2022/05/07 04:11:46;;;;;;;;;12.75;11.25;;;;;15.70;55.10;102240.28;2392202;28;45500;-80
2022/05/07 04:12:56;;;;;;;;;17.00;12.50;;;;;15.68;54.94;102234.13;2405969;28;45445;-81
2022/05/07 04:14:07;;;;;;;;;14.25;12.75;;;;;15.64;55.00;102228.06;2409070;28;45339;-81
2022/05/07 04:15:18;;;;;;;;;18.00;13.50;;;;;15.64;54.88;102232.50;2401636;28;44707;-82
2022/05/07 04:16:28;;;;;;;;;12.25;11.25;;;;;15.63;55.48;102236.91;2403595;28;45289;-81
2022/05/07 04:17:39;;;;;;;;;17.50;13.75;;;;;15.64;55.08;102232.50;2407170;28;45256;-82
2022/05/07 04:18:49;;;;;;;;;16.75;12.00;;;;;15.64;55.21;102237.78;2398260;28;46296;-82
2022/05/07 04:19:59;;;;;;;;;12.00;9.75;;;;;15.64;55.16;102232.50;2410747;28;45284;-81
2022/05/07 04:21:10;;;;;;;;;10.75;9.00;;;;;15.62;55.85;102237.84;2403472;28;45419;-82
2022/05/07 04:22:20;;;;;;;;;13.50;12.25;;;;;15.60;55.95;102242.34;2409275;28;45213;-82
2022/05/07 04:23:31;;;;;;;;;13.25;12.50;;;;;15.58;56.72;102243.28;2398462;28;45425;-81
2022/05/07 04:24:41;;;;;;;;;11.50;10.00;;;;;15.56;55.62;102239.78;2407418;28;45324;-80
2022/05/07 04:25:52;;;;;;;;;12.25;11.50;;;;;15.56;56.40;102245.09;2408516;28;45495;-80
2022/05/07 04:27:02;;;;;;;;;19.00;13.00;;;;;15.53;56.10;102240.78;2403594;28;45219;-79
2022/05/07 04:28:13;;;;;;;;;14.25;12.25;;;;;15.51;55.68;102237.28;2403757;28;45509;-81
2022/05/07 04:29:23;;;;;;;;;14.00;13.00;;;;;15.51;56.08;102237.28;2397254;28;45521;-81
2022/05/07 04:30:35;;;;;;;;;17.00;15.00;;;;;15.54;55.69;102242.50;2397466;28;46317;-81
2022/05/07 04:31:45;;;;;;;;;13.00;11.50;;;;;15.52;56.09;102239.91;2401862;28;45318;-81
2022/05/07 04:32:56;;;;;;;;;17.75;14.00;;;;;15.50;56.06;102236.44;2396343;28;47943;-81
2022/05/07 04:34:06;;;;;;;;;13.00;13.00;;;;;15.49;55.69;102244.41;2396663;28;44811;-80
2022/05/07 04:35:17;;;;;;;;;17.50;13.25;;;;;15.50;56.03;102244.41;2402364;28;45306;-79
2022/05/07 04:36:27;;;;;;;;;14.50;12.00;;;;;15.51;55.75;102238.16;2405383;28;45344;-79
2022/05/07 04:37:37;;;;;;;;;18.00;12.50;;;;;15.52;55.92;102239.03;2404071;28;45585;-80
2022/05/07 04:38:48;;;;;;;;;15.25;14.50;;;;;15.49;56.00;102237.34;2396596;28;45206;-80
2022/05/07 04:39:58;;;;;;;;;19.50;15.25;;;;;15.47;56.00;102233.88;2385120;28;46217;-80
2022/05/07 04:41:08;;;;;;;;;13.25;10.75;;;;;15.47;57.18;102239.19;2389503;28;45292;-79
2022/05/07 04:42:19;;;;;;;;;10.75;10.00;;;;;15.44;56.74;102239.25;2399778;28;47266;-80
2022/05/07 04:43:29;;;;;;;;;16.00;11.50;;;;;15.40;56.98;102238.50;2400747;28;45255;-79
2022/05/07 04:44:40;;;;;;;;;18.25;12.00;;;;;15.39;56.03;102235.88;2407787;28;45470;-79
2022/05/07 04:45:50;;;;;;;;;15.50;14.25;;;;;15.36;56.44;102234.19;2391568;28;44802;-79
2022/05/07 04:47:01;;;;;;;;;19.50;15.75;;;;;15.38;56.64;102237.66;2388122;28;47298;-81
2022/05/07 04:48:11;;;;;;;;;10.50;8.75;;;;;15.37;56.38;102243.00;2396257;28;44810;-81
2022/05/07 04:49:22;;;;;;;;;13.75;11.00;;;;;15.36;56.59;102239.47;2398289;28;45273;-80
2022/05/07 04:50:33;;;;;;;;;18.75;12.50;;;;;15.33;56.93;102249.31;2406255;28;45117;-81
2022/05/07 04:51:43;;;;;;;;;19.50;14.00;;;;;15.32;56.75;102240.50;2408968;28;45503;-81
2022/05/07 04:52:53;;;;;;;;;17.25;11.75;;;;;15.31;56.54;102246.69;2397588;28;45294;-80
2022/05/07 04:54:04;;;;;;;;;20.25;14.00;;;;;15.35;56.34;102239.53;2409223;28;45631;-80
2022/05/07 04:55:15;;;;;;;;;18.00;14.25;;;;;15.36;56.53;102236.00;2401474;28;45328;-81
2022/05/07 04:56:25;;;;;;;;;20.75;13.25;;;;;15.38;56.53;102228.84;2408748;28;45344;-80
2022/05/07 04:57:36;;;;;;;;;15.25;13.00;;;;;15.39;56.49;102231.44;2390317;28;45449;-80
2022/05/07 04:58:47;;;;;;;;;15.50;13.25;;;;;15.42;56.80;102238.44;2395187;28;46478;-80
2022/05/07 04:59:59;;;;;;;;;16.50;12.25;;;;;15.46;56.45;102244.53;2406541;28;45325;-80
2022/05/07 05:01:09;;;;;;;;;18.50;15.00;;;;;15.46;57.03;102245.38;2405529;28;45654;-80
2022/05/07 05:02:19;;;;;;;;;19.75;13.75;;;;;15.46;56.68;102250.69;2410204;28;45538;-80
2022/05/07 05:03:30;;;;;;;;;17.00;15.00;;;;;15.46;56.75;102244.53;2402060;28;46223;-80
2022/05/07 05:04:40;;;;;;;;;19.75;17.00;;;;;15.46;56.70;102248.03;2408496;28;45421;-80
2022/05/07 05:05:50;;;;;;;;;16.50;15.75;;;;;15.44;56.64;102236.59;2398717;28;45263;-80
2022/05/07 05:07:00;;;;;;;;;17.25;16.25;;;;;15.41;57.12;102247.28;2399857;28;45287;-80
2022/05/07 05:08:11;;;;;;;;;17.50;14.75;;;;;15.39;56.67;102250.00;2407682;28;46199;-80
2022/05/07 05:09:21;;;;;;;;;17.00;16.25;;;;;15.36;57.00;102238.63;2402333;28;44605;-80
2022/05/07 05:10:32;;;;;;;;;22.00;19.00;;;;;15.34;57.32;102240.44;2405190;28;45430;-80
2022/05/07 05:11:42;;;;;;;;;18.50;14.75;;;;;15.30;57.20;102242.31;2407956;28;45440;-79
2022/05/07 05:12:53;;;;;;;;;17.75;16.00;;;;;15.26;57.21;102241.53;2400804;28;45395;-79
2022/05/07 05:15:01;;;;;;;;;20.50;18.75;;;;;15.25;57.12;102237.16;2400344;28;45340;-79
2022/05/07 05:15:37;;;;;;;;;17.50;16.00;;;;;15.24;57.36;102240.72;2397574;28;45968;-79
2022/05/07 05:16:47;;;;;;;;;10.50;10.50;;;;;15.23;57.30;102241.63;2395668;28;45382;-79
2022/05/07 05:17:59;;;;;;;;;18.75;16.25;;;;;15.23;57.16;102238.13;2395954;28;45358;-79
2022/05/07 05:19:10;;;;;;;;;18.50;15.25;;;;;15.23;57.47;102246.94;2402552;28;45219;-80
2022/05/07 05:20:20;;;;;;;;;21.25;18.00;;;;;15.24;57.84;102247.78;2399758;28;45584;-80
2022/05/07 05:21:30;;;;;;;;;23.00;18.50;;;;;15.22;58.13;102244.31;2409030;28;45352;-80
2022/05/07 05:22:48;;;;;;;;;20.50;15.25;;;;;15.20;57.53;102239.06;2408538;28;46176;-79
2022/05/07 05:23:58;;;;;;;;;24.00;16.75;;;;;15.20;57.79;102241.72;2401764;28;45258;-79
2022/05/07 05:25:09;;;;;;;;;18.50;16.25;;;;;15.19;57.81;102247.91;2409081;28;46137;-79
2022/05/07 05:26:19;;;;;;;;;17.75;15.00;;;;;15.19;57.73;102239.97;2407262;28;45287;-79
2022/05/07 05:27:30;;;;;;;;;21.50;16.50;;;;;15.20;57.47;102241.72;2405667;28;45367;-79
2022/05/07 05:28:42;;;;;;;;;22.25;17.50;;;;;15.22;57.35;102245.19;2400437;28;45459;-79
2022/05/07 05:29:53;;;;;;;;;19.75;17.00;;;;;15.24;57.48;102246.00;2405860;28;46196;-79
2022/05/07 05:31:03;;;;;;;;;18.75;15.75;;;;;15.25;57.48;102247.75;2394344;28;45247;-79
2022/05/07 05:32:17;;;;;;;;;21.25;18.00;;;;;15.29;57.45;102244.09;2389486;28;46543;-79